Time;durP1;ratioP1;P1;durP2;ratioP2;P2;SDS_P1;SDS_P2;PMS_P1;PMS_P2;Temp;Humidity;BMP_temperature;BMP_pressure;BME280_temperature;BME280_humidity;BME280_pressure;Samples;Min_cycle;Max_cycle;Signal;HPM_P1;HPM_P2
2021/10/29 00:00:21;;;;;;;;;;;1.80;99.90;;;;;;5089764;28;19909;-75
2021/10/29 00:02:47;;;;;;;;;;;2.00;99.90;;;;;;5090846;28;19995;-76
2021/10/29 00:05:12;;;;;;;;;;;1.80;99.90;;;;;;5072511;28;19912;-76
2021/10/29 00:07:38;;;;;;;;;;;2.00;99.90;;;;;;5090700;28;20072;-76
2021/10/29 00:10:04;;;;;;;;;;;1.80;99.90;;;;;;5072128;28;20011;-76
2021/10/29 00:12:30;;;;;;;;;;;1.70;99.90;;;;;;5072895;28;19919;-76
2021/10/29 00:14:56;;;;;;;;;;;2.20;99.90;;;;;;5072679;28;20274;-76
2021/10/29 00:17:22;;;;;;;;;;;1.90;99.90;;;;;;5090711;28;20406;-76
2021/10/29 00:19:47;;;;;;;;;;;2.20;99.90;;;;;;5090071;28;19935;-76
2021/10/29 00:22:13;;;;;;;;;;;2.30;99.90;;;;;;5090596;28;19915;-76
2021/10/29 00:24:39;;;;;;;;;;;2.20;99.90;;;;;;5090672;28;19908;-76
2021/10/29 00:27:04;;;;;;;;;;;2.20;99.90;;;;;;5090643;28;19912;-76
2021/10/29 00:29:30;;;;;;;;;;;2.00;99.90;;;;;;5083050;28;19998;-76
2021/10/29 00:31:55;;;;;;;;;;;1.80;99.90;;;;;;5091266;28;20157;-76
2021/10/29 00:34:21;;;;;;;;;;;1.70;99.90;;;;;;5094016;28;19914;-76
2021/10/29 00:36:47;;;;;;;;;;;1.70;99.90;;;;;;5075839;28;19915;-76
2021/10/29 00:39:13;;;;;;;;;;;1.80;99.90;;;;;;5075890;28;19908;-76
2021/10/29 00:41:39;;;;;;;;;;;1.60;99.90;;;;;;5093597;28;19916;-75
2021/10/29 00:44:05;;;;;;;;;;;1.70;99.90;;;;;;5075797;28;19908;-75
2021/10/29 00:46:30;;;;;;;;;;;2.00;99.90;;;;;;5093922;28;20297;-75
2021/10/29 00:48:56;;;;;;;;;;;2.10;99.90;;;;;;5093746;28;19998;-76
2021/10/29 00:51:22;;;;;;;;;;;2.00;99.90;;;;;;5093338;28;19916;-76
2021/10/29 00:53:48;;;;;;;;;;;2.10;99.90;;;;;;5093994;28;19908;-76
2021/10/29 00:56:14;;;;;;;;;;;2.10;99.90;;;;;;5073161;28;19931;-76
2021/10/29 00:58:39;;;;;;;;;;;1.70;99.90;;;;;;5086524;28;20305;-76
2021/10/29 01:01:05;;;;;;;;;;;1.50;99.90;;;;;;5093018;28;19994;-75
2021/10/29 01:03:31;;;;;;;;;;;1.50;99.90;;;;;;5075337;28;19908;-76
2021/10/29 01:05:57;;;;;;;;;;;1.40;99.90;;;;;;5093429;28;19912;-76
2021/10/29 01:08:22;;;;;;;;;;;1.30;99.90;;;;;;5075339;28;19915;-76
2021/10/29 01:10:49;;;;;;;;;;;1.10;99.90;;;;;;5093146;28;19917;-76
2021/10/29 01:13:15;;;;;;;;;;;1.20;99.90;;;;;;5093388;28;19930;-76
2021/10/29 01:15:41;;;;;;;;;;;1.20;99.90;;;;;;5075215;28;20352;-76
2021/10/29 01:18:07;;;;;;;;;;;1.10;99.90;;;;;;5075062;28;19934;-76
2021/10/29 01:20:33;;;;;;;;;;;1.00;99.90;;;;;;5092777;28;20649;-76
2021/10/29 01:22:58;;;;;;;;;;;1.20;99.90;;;;;;5093196;28;20362;-76
2021/10/29 01:25:23;;;;;;;;;;;1.00;99.90;;;;;;5093106;28;19931;-76
2021/10/29 01:27:49;;;;;;;;;;;1.00;99.90;;;;;;5069618;28;19916;-76
2021/10/29 01:30:15;;;;;;;;;;;1.10;99.90;;;;;;5073665;28;20000;-76
2021/10/29 01:32:41;;;;;;;;;;;1.00;99.90;;;;;;5093007;28;19908;-76
2021/10/29 01:35:07;;;;;;;;;;;0.90;99.90;;;;;;5093027;28;20049;-76
2021/10/29 01:37:39;;;;;;;;;;;0.90;99.90;;;;;;5093129;28;19908;-76
2021/10/29 01:40:09;;;;;;;;;;;1.10;99.90;;;;;;5092433;28;19914;-76
2021/10/29 01:42:35;;;;;;;;;;;0.90;99.90;;;;;;5092939;28;19935;-76
2021/10/29 01:45:01;;;;;;;;;;;0.90;99.90;;;;;;5092628;28;20359;-75
2021/10/29 01:47:26;;;;;;;;;;;0.90;99.90;;;;;;5092577;28;19919;-76
2021/10/29 01:49:52;;;;;;;;;;;0.80;99.90;;;;;;5092502;28;19908;-75
2021/10/29 01:52:18;;;;;;;;;;;0.70;99.90;;;;;;5074438;28;19909;-76
2021/10/29 01:54:43;;;;;;;;;;;0.70;99.90;;;;;;5092583;28;19919;-76
2021/10/29 01:57:09;;;;;;;;;;;0.80;99.90;;;;;;5086185;28;19912;-76
2021/10/29 01:59:34;;;;;;;;;;;0.90;99.90;;;;;;5066107;28;20353;-76
2021/10/29 02:02:00;;;;;;;;;;;0.90;99.90;;;;;;5092201;28;19908;-76
2021/10/29 02:04:25;;;;;;;;;;;1.10;99.90;;;;;;5092363;28;20366;-76
2021/10/29 02:06:51;;;;;;;;;;;1.10;99.90;;;;;;5074006;28;19919;-76
2021/10/29 02:09:17;;;;;;;;;;;1.20;99.90;;;;;;5092121;28;19947;-75
2021/10/29 02:11:42;;;;;;;;;;;1.00;99.90;;;;;;5091898;28;19919;-76
2021/10/29 02:14:08;;;;;;;;;;;1.00;99.90;;;;;;5092515;28;19909;-76
2021/10/29 02:16:34;;;;;;;;;;;1.10;99.90;;;;;;5092314;28;19974;-76
2021/10/29 02:19:00;;;;;;;;;;;1.10;99.90;;;;;;5074073;28;19908;-76
2021/10/29 02:21:27;;;;;;;;;;;1.10;99.90;;;;;;5073516;28;19908;-76
2021/10/29 02:23:53;;;;;;;;;;;1.00;99.90;;;;;;5091970;28;19932;-76
2021/10/29 02:26:19;;;;;;;;;;;0.80;99.90;;;;;;5070889;28;20001;-76
2021/10/29 02:28:44;;;;;;;;;;;0.90;99.90;;;;;;5069564;28;19974;-76
2021/10/29 02:31:10;;;;;;;;;;;1.10;99.90;;;;;;5071578;28;20327;-76
2021/10/29 02:33:35;;;;;;;;;;;1.00;99.90;;;;;;5073575;28;20315;-76
2021/10/29 02:36:01;;;;;;;;;;;0.80;99.90;;;;;;5091775;28;20378;-76
2021/10/29 02:38:26;;;;;;;;;;;0.70;99.90;;;;;;5091817;28;19912;-76
2021/10/29 02:40:52;;;;;;;;;;;0.80;99.90;;;;;;5091848;28;19943;-76
2021/10/29 02:43:17;;;;;;;;;;;1.00;99.90;;;;;;5091595;28;19912;-76
2021/10/29 02:45:43;;;;;;;;;;;1.20;99.90;;;;;;5073476;28;20290;-76
2021/10/29 02:48:09;;;;;;;;;;;1.40;99.90;;;;;;5091656;28;19933;-76
2021/10/29 02:50:35;;;;;;;;;;;1.50;99.90;;;;;;5073023;28;19912;-76
2021/10/29 02:53:03;;;;;;;;;;;1.60;99.90;;;;;;5091539;28;20380;-76
2021/10/29 02:55:29;;;;;;;;;;;1.70;99.90;;;;;;5091007;28;19912;-76
2021/10/29 02:57:54;;;;;;;;;;;1.70;99.90;;;;;;5084538;28;19912;-76
2021/10/29 03:00:20;;;;;;;;;;;1.70;99.90;;;;;;5089836;28;19908;-75
2021/10/29 03:02:45;;;;;;;;;;;1.80;99.90;;;;;;5091417;28;19965;-76
2021/10/29 03:05:12;;;;;;;;;;;1.50;99.90;;;;;;5091279;28;19916;-76
2021/10/29 03:07:38;;;;;;;;;;;1.30;99.90;;;;;;5091300;28;20393;-76
2021/10/29 03:10:06;;;;;;;;;;;1.30;99.90;;;;;;5090699;28;19916;-76
2021/10/29 03:12:31;;;;;;;;;;;1.10;99.90;;;;;;5091047;28;19908;-76
2021/10/29 03:14:57;;;;;;;;;;;1.10;99.90;;;;;;5091132;28;19909;-76
2021/10/29 03:17:22;;;;;;;;;;;1.10;99.90;;;;;;5091209;28;19915;-74
2021/10/29 03:19:48;;;;;;;;;;;0.80;99.90;;;;;;5090847;28;19994;-76
2021/10/29 03:22:13;;;;;;;;;;;0.80;99.90;;;;;;5091165;28;20374;-76
2021/10/29 03:24:39;;;;;;;;;;;0.70;99.90;;;;;;5073032;28;20347;-76
2021/10/29 03:27:04;;;;;;;;;;;0.70;99.90;;;;;;5090708;28;19921;-75
2021/10/29 03:29:30;;;;;;;;;;;0.60;99.90;;;;;;5064286;28;19924;-76
2021/10/29 03:31:56;;;;;;;;;;;0.50;99.90;;;;;;5084136;28;19912;-76
2021/10/29 03:34:22;;;;;;;;;;;0.60;99.90;;;;;;5091092;28;19909;-76
2021/10/29 03:36:48;;;;;;;;;;;0.50;99.90;;;;;;5091049;28;19909;-76
2021/10/29 03:39:23;;;;;;;;;;;0.50;99.90;;;;;;5090861;28;20382;-76
2021/10/29 03:41:55;;;;;;;;;;;0.50;99.90;;;;;;5072455;28;19913;-76
2021/10/29 03:46:48;;;;;;;;;;;0.80;99.90;;;;;;5090790;28;19919;-76
2021/10/29 03:51:52;;;;;;;;;;;0.70;99.90;;;;;;5090579;28;19998;-76
2021/10/29 03:54:52;;;;;;;;;;;0.50;99.90;;;;;;5072498;28;19908;-76
2021/10/29 03:57:23;;;;;;;;;;;0.40;99.90;;;;;;5085371;28;19916;-76
2021/10/29 03:59:49;;;;;;;;;;;0.50;99.90;;;;;;5065696;28;19908;-76
2021/10/29 04:02:14;;;;;;;;;;;0.40;99.90;;;;;;5090747;28;19914;-76
2021/10/29 04:04:40;;;;;;;;;;;0.50;99.90;;;;;;5090609;28;19919;-75
2021/10/29 04:07:05;;;;;;;;;;;0.40;99.90;;;;;;5093638;28;19963;-76
2021/10/29 04:09:31;;;;;;;;;;;0.20;99.90;;;;;;5094320;28;19908;-76
2021/10/29 04:11:56;;;;;;;;;;;0.20;99.90;;;;;;5076110;28;19940;-76
2021/10/29 04:14:28;;;;;;;;;;;0.20;99.90;;;;;;5076211;28;20286;-76
2021/10/29 04:16:54;;;;;;;;;;;0.30;99.90;;;;;;5094493;28;19908;-76
2021/10/29 04:19:19;;;;;;;;;;;0.40;99.90;;;;;;5094078;28;19908;-76
2021/10/29 04:21:45;;;;;;;;;;;0.50;99.90;;;;;;5094031;28;19931;-76
2021/10/29 04:24:10;;;;;;;;;;;0.50;99.90;;;;;;5094270;28;19958;-76
2021/10/29 04:26:37;;;;;;;;;;;0.30;99.90;;;;;;5091067;28;20008;-76
2021/10/29 04:29:12;;;;;;;;;;;0.30;99.90;;;;;;5092429;28;19908;-76
2021/10/29 04:31:46;;;;;;;;;;;0.30;99.90;;;;;;5075079;28;19914;-76
2021/10/29 04:34:12;;;;;;;;;;;0.10;99.90;;;;;;5094164;28;20114;-76
2021/10/29 04:36:38;;;;;;;;;;;0.10;99.90;;;;;;5093720;28;19908;-76
2021/10/29 04:39:09;;;;;;;;;;;0.20;99.90;;;;;;5093994;28;20451;-76
2021/10/29 04:41:35;;;;;;;;;;;0.10;99.90;;;;;;5093982;28;19919;-76
2021/10/29 04:44:00;;;;;;;;;;;0.20;99.90;;;;;;5075264;28;19908;-75
2021/10/29 04:46:26;;;;;;;;;;;0.30;99.90;;;;;;5075145;28;19916;-76
2021/10/29 04:48:52;;;;;;;;;;;0.30;99.90;;;;;;5075711;28;20004;-76
2021/10/29 04:51:17;;;;;;;;;;;0.30;99.90;;;;;;5093339;28;19913;-76
2021/10/29 04:53:43;;;;;;;;;;;0.30;99.90;;;;;;5075916;28;19981;-76
2021/10/29 04:56:09;;;;;;;;;;;0.40;99.90;;;;;;5073860;28;19909;-76
2021/10/29 04:58:34;;;;;;;;;;;0.60;99.90;;;;;;5085238;28;20433;-76
2021/10/29 05:01:00;;;;;;;;;;;0.60;99.90;;;;;;5092210;28;19999;-76
2021/10/29 05:03:25;;;;;;;;;;;0.70;99.90;;;;;;5093637;28;19908;-76
2021/10/29 05:05:51;;;;;;;;;;;0.70;99.90;;;;;;5093652;28;19958;-75
2021/10/29 05:08:17;;;;;;;;;;;0.60;99.90;;;;;;5093421;28;19908;-76
2021/10/29 05:10:42;;;;;;;;;;;0.50;99.90;;;;;;5092531;28;19916;-76
2021/10/29 05:13:07;;;;;;;;;;;0.30;99.90;;;;;;5075101;28;19909;-76
2021/10/29 05:15:33;;;;;;;;;;;0.30;99.90;;;;;;5074796;28;19959;-77
2021/10/29 05:18:00;;;;;;;;;;;0.30;99.90;;;;;;5092545;28;19961;-76
2021/10/29 05:20:26;;;;;;;;;;;0.30;99.90;;;;;;5074453;28;19908;-76
2021/10/29 05:22:51;;;;;;;;;;;0.80;99.90;;;;;;5093184;28;19914;-76
2021/10/29 05:25:17;;;;;;;;;;;1.10;99.90;;;;;;5093106;28;19930;-76
2021/10/29 05:27:42;;;;;;;;;;;0.70;99.90;;;;;;5072087;28;19920;-76
2021/10/29 05:30:09;;;;;;;;;;;0.40;99.90;;;;;;5086046;28;19908;-75
2021/10/29 05:32:35;;;;;;;;;;;0.30;99.90;;;;;;5092548;28;19912;-76
2021/10/29 05:35:00;;;;;;;;;;;0.40;99.90;;;;;;5074438;28;19919;-76
2021/10/29 05:37:30;;;;;;;;;;;0.30;99.90;;;;;;5072675;28;19908;-75
2021/10/29 05:39:57;;;;;;;;;;;0.10;99.90;;;;;;5074320;28;19908;-76
2021/10/29 05:42:23;;;;;;;;;;;0.20;99.90;;;;;;5092929;28;19930;-76
2021/10/29 05:44:48;;;;;;;;;;;0.10;99.90;;;;;;5092632;28;19912;-75
2021/10/29 05:47:15;;;;;;;;;;;0.30;99.90;;;;;;5092590;28;20283;-76
2021/10/29 05:49:42;;;;;;;;;;;0.30;99.90;;;;;;5092201;28;19965;-76
2021/10/29 05:52:14;;;;;;;;;;;0.50;99.90;;;;;;5074615;28;19908;-76
2021/10/29 05:55:00;;;;;;;;;;;0.40;99.90;;;;;;5074606;28;20480;-76
2021/10/29 05:57:25;;;;;;;;;;;0.30;99.90;;;;;;5086261;28;19968;-76
2021/10/29 05:59:52;;;;;;;;;;;0.20;99.90;;;;;;5071786;28;19908;-76
2021/10/29 06:02:18;;;;;;;;;;;0.20;99.90;;;;;;5092476;28;19953;-76
2021/10/29 06:04:44;;;;;;;;;;;0.20;99.90;;;;;;5092856;28;19912;-76
2021/10/29 06:07:09;;;;;;;;;;;0.30;99.90;;;;;;5092311;28;19912;-76
2021/10/29 06:09:35;;;;;;;;;;;0.20;99.90;;;;;;5073705;28;19927;-74
2021/10/29 06:12:01;;;;;;;;;;;0.30;99.90;;;;;;5091870;28;20428;-76
2021/10/29 06:14:27;;;;;;;;;;;0.40;99.90;;;;;;5092160;28;19908;-76
2021/10/29 06:16:56;;;;;;;;;;;0.30;99.90;;;;;;5092264;28;20370;-76
2021/10/29 06:19:22;;;;;;;;;;;0.30;99.90;;;;;;5092042;28;19908;-76
2021/10/29 06:21:58;;;;;;;;;;;0.30;99.90;;;;;;5073599;28;19919;-76
2021/10/29 06:24:25;;;;;;;;;;;0.60;99.90;;;;;;5073855;28;19912;-76
2021/10/29 06:27:00;;;;;;;;;;;0.40;99.90;;;;;;5088947;28;19959;-76
2021/10/29 06:29:26;;;;;;;;;;;0.50;99.90;;;;;;5090340;28;19915;-76
2021/10/29 06:31:51;;;;;;;;;;;0.60;99.90;;;;;;5073346;28;19908;-75
2021/10/29 06:34:17;;;;;;;;;;;0.70;99.90;;;;;;5091853;28;20259;-76
2021/10/29 06:36:43;;;;;;;;;;;0.70;99.90;;;;;;5091445;28;19908;-76
2021/10/29 06:39:08;;;;;;;;;;;0.80;99.90;;;;;;5091580;28;19908;-76
2021/10/29 06:41:35;;;;;;;;;;;0.90;99.90;;;;;;5072909;28;20018;-76
2021/10/29 06:46:36;;;;;;;;;;;1.10;99.90;;;;;;5091502;28;20429;-76
2021/10/29 07:00:10;;;;;;;;;;;1.40;99.90;;;;;;5084003;28;19977;-76
2021/10/29 07:05:24;;;;;;;;;;;1.70;99.90;;;;;;5091425;28;19912;-76
2021/10/29 07:40:46;;;;;;;;;;;4.10;99.90;;;;;;5091000;28;19953;-75
2021/10/29 07:43:16;;;;;;;;;;;4.40;99.90;;;;;;5076861;28;19951;-75
2021/10/29 07:45:42;;;;;;;;;;;4.50;99.90;;;;;;5088421;28;19908;-74
2021/10/29 07:48:07;;;;;;;;;;;4.60;99.90;;;;;;5095015;28;20378;-75
2021/10/29 07:50:33;;;;;;;;;;;4.90;99.90;;;;;;5094322;28;19908;-75
2021/10/29 07:52:59;;;;;;;;;;;5.00;99.90;;;;;;5094752;28;19908;-75
2021/10/29 07:55:27;;;;;;;;;;;5.10;99.90;;;;;;5076876;28;19915;-75
2021/10/29 07:57:53;;;;;;;;;;;5.40;99.90;;;;;;5086552;28;19915;-75
2021/10/29 08:00:20;;;;;;;;;;;5.70;99.90;;;;;;5093470;28;19912;-75
2021/10/29 08:02:47;;;;;;;;;;;5.70;99.90;;;;;;5094597;28;19916;-75
2021/10/29 08:05:13;;;;;;;;;;;5.90;99.90;;;;;;5094634;28;19908;-76
2021/10/29 08:07:39;;;;;;;;;;;6.10;99.90;;;;;;5076375;28;19961;-75
2021/10/29 08:10:06;;;;;;;;;;;6.10;99.90;;;;;;5093975;28;19920;-75
2021/10/29 08:12:32;;;;;;;;;;;6.10;99.90;;;;;;5076103;28;19966;-76
2021/10/29 08:14:57;;;;;;;;;;;6.00;99.90;;;;;;5094512;28;19920;-76
2021/10/29 08:17:23;;;;;;;;;;;6.00;99.90;;;;;;5094465;28;19908;-76
2021/10/29 08:19:49;;;;;;;;;;;6.20;99.90;;;;;;5076757;28;20435;-74
2021/10/29 08:22:15;;;;;;;;;;;6.20;99.90;;;;;;5095186;28;19908;-75
2021/10/29 08:24:41;;;;;;;;;;;6.30;99.90;;;;;;5094488;28;19920;-75
2021/10/29 08:27:07;;;;;;;;;;;6.60;99.90;;;;;;5076048;28;20003;-75
2021/10/29 08:29:33;;;;;;;;;;;6.90;99.90;;;;;;5076976;28;20003;-75
2021/10/29 08:31:59;;;;;;;;;;;7.80;99.90;;;;;;5084708;28;19916;-75
2021/10/29 08:34:25;;;;;;;;;;;10.00;99.90;;;;;;5076211;28;19908;-75
2021/10/29 08:36:56;;;;;;;;;;;10.40;99.90;;;;;;5094284;28;19908;-75
2021/10/29 08:39:21;;;;;;;;;;;10.10;99.90;;;;;;5094107;28;19969;-75
2021/10/29 08:41:47;;;;;;;;;;;10.10;99.90;;;;;;5075410;28;20358;-76
2021/10/29 08:44:14;;;;;;;;;;;10.80;99.90;;;;;;5094152;28;20259;-76
2021/10/29 08:46:40;;;;;;;;;;;10.70;99.90;;;;;;5075822;28;19911;-74
2021/10/29 08:49:07;;;;;;;;;;;11.50;99.90;;;;;;5075830;28;19912;-75
2021/10/29 08:51:32;;;;;;;;;;;13.90;99.90;;;;;;5093391;28;20370;-75
2021/10/29 08:53:58;;;;;;;;;;;13.80;99.90;;;;;;5092850;28;19962;-75
2021/10/29 08:56:25;;;;;;;;;;;13.70;99.90;;;;;;5074310;28;19915;-75
2021/10/29 08:59:14;;;;;;;;;;;13.50;99.90;;;;;;5089710;28;19918;-75
2021/10/29 09:01:55;;;;;;;;;;;14.40;99.90;;;;;;5091156;28;20105;-76
2021/10/29 09:04:35;;;;;;;;;;;14.30;99.90;;;;;;5088007;28;20396;-75
2021/10/29 09:31:28;;;;;;;;;;;14.40;99.90;;;;;;5087163;28;19919;-75
2021/10/29 09:34:20;;;;;;;;;;;16.40;99.90;;;;;;5074957;28;19908;-76
2021/10/29 09:36:52;;;;;;;;;;;16.90;99.90;;;;;;5088122;28;19909;-75
2021/10/29 09:39:19;;;;;;;;;;;16.60;99.90;;;;;;5092843;28;20341;-76
2021/10/29 09:41:45;;;;;;;;;;;17.90;99.90;;;;;;5092750;28;20297;-76
2021/10/29 09:44:13;;;;;;;;;;;18.20;99.90;;;;;;5092831;28;19908;-76
2021/10/29 09:46:48;;;;;;;;;;;18.50;99.90;;;;;;5074628;28;19954;-76
2021/10/29 09:49:17;;;;;;;;;;;18.00;99.70;;;;;;5074675;28;19915;-76
2021/10/29 09:51:50;;;;;;;;;;;17.30;99.90;;;;;;5068022;28;19912;-76
2021/10/29 09:54:19;;;;;;;;;;;18.40;99.90;;;;;;5092743;28;19908;-76
2021/10/29 09:56:53;;;;;;;;;;;19.80;98.00;;;;;;5088387;28;20393;-76
2021/10/29 09:59:19;;;;;;;;;;;20.30;97.70;;;;;;5081067;28;20382;-76
2021/10/29 10:01:45;;;;;;;;;;;20.00;96.60;;;;;;5074297;28;19915;-76
2021/10/29 10:04:11;;;;;;;;;;;19.40;96.60;;;;;;5074273;28;19980;-76
2021/10/29 10:06:40;;;;;;;;;;;17.40;98.70;;;;;;5092380;28;19912;-76
2021/10/29 10:09:09;;;;;;;;;;;17.50;99.50;;;;;;5092296;28;19910;-76
2021/10/29 10:11:36;;;;;;;;;;;17.60;99.80;;;;;;5073647;28;20393;-76
2021/10/29 10:14:04;;;;;;;;;;;17.50;99.10;;;;;;5092275;28;19957;-76
2021/10/29 10:16:31;;;;;;;;;;;18.00;99.50;;;;;;5092208;28;19965;-76
2021/10/29 10:18:57;;;;;;;;;;;19.50;97.70;;;;;;5092193;28;19908;-75
2021/10/29 10:21:26;;;;;;;;;;;19.20;97.50;;;;;;5091409;28;20228;-75
2021/10/29 10:23:54;;;;;;;;;;;18.30;97.50;;;;;;5073994;28;19991;-76
2021/10/29 10:45:17;;;;;;;;;;;16.50;99.40;;;;;;5092197;28;19994;-76
2021/10/29 10:47:45;;;;;;;;;;;16.10;98.70;;;;;;5091862;28;20010;-75
2021/10/29 10:50:16;;;;;;;;;;;15.50;99.70;;;;;;5091595;28;19912;-77
2021/10/29 10:53:09;;;;;;;;;;;15.60;98.50;;;;;;5091953;28;19908;-76
2021/10/29 10:59:11;;;;;;;;;;;15.00;99.50;;;;;;5062469;28;19916;-75
2021/10/29 11:07:28;;;;;;;;;;;14.80;99.50;;;;;;5086115;28;19919;-75
2021/10/29 11:10:04;;;;;;;;;;;14.30;99.90;;;;;;5091007;28;19927;-75
2021/10/29 11:12:45;;;;;;;;;;;13.90;99.90;;;;;;5091302;28;19916;-75
2021/10/29 11:15:17;;;;;;;;;;;14.00;99.90;;;;;;5070905;28;19913;-75
2021/10/29 11:17:44;;;;;;;;;;;13.80;99.90;;;;;;5071417;28;19909;-75
2021/10/29 11:20:11;;;;;;;;;;;13.90;99.90;;;;;;5078241;28;19908;-75
2021/10/29 11:22:44;;;;;;;;;;;14.10;99.90;;;;;;5091506;28;19931;-75
2021/10/29 11:25:18;;;;;;;;;;;14.10;99.90;;;;;;5073328;28;19999;-74
2021/10/29 11:27:44;;;;;;;;;;;13.90;99.90;;;;;;5091223;28;19939;-75
2021/10/29 11:30:09;;;;;;;;;;;13.90;99.90;;;;;;5083657;28;19909;-75
2021/10/29 11:32:37;;;;;;;;;;;13.60;99.90;;;;;;5071259;28;19908;-75
2021/10/29 11:35:04;;;;;;;;;;;13.60;99.90;;;;;;5086821;28;19909;-75
2021/10/29 11:37:33;;;;;;;;;;;13.70;99.90;;;;;;5091317;28;19908;-75
2021/10/29 11:40:00;;;;;;;;;;;13.60;99.90;;;;;;5090950;28;19908;-75
2021/10/29 11:42:28;;;;;;;;;;;13.70;99.90;;;;;;5091394;28;20007;-75
2021/10/29 11:44:54;;;;;;;;;;;13.90;99.90;;;;;;5091017;28;19936;-75
2021/10/29 11:47:20;;;;;;;;;;;14.00;99.90;;;;;;5090890;28;19966;-75
2021/10/29 11:49:46;;;;;;;;;;;14.00;99.90;;;;;;5090569;28;19947;-75
2021/10/29 11:52:11;;;;;;;;;;;13.90;99.90;;;;;;5090934;28;19954;-75
2021/10/29 11:54:41;;;;;;;;;;;13.80;99.90;;;;;;5073097;28;20373;-75
2021/10/29 12:07:38;;;;;;;;;;;13.80;99.90;;;;;;5091188;28;19918;-75
2021/10/29 12:10:06;;;;;;;;;;;13.80;99.90;;;;;;5090486;28;19920;-75
2021/10/29 12:12:39;;;;;;;;;;;14.10;99.60;;;;;;5091100;28;19930;-76
2021/10/29 12:15:13;;;;;;;;;;;14.20;98.60;;;;;;5091109;28;19922;-76
2021/10/29 12:17:57;;;;;;;;;;;14.10;98.60;;;;;;5091087;28;20378;-76
2021/10/29 12:20:33;;;;;;;;;;;13.90;99.60;;;;;;5090602;28;19931;-76
2021/10/29 12:23:15;;;;;;;;;;;13.90;99.70;;;;;;5091093;28;19954;-75
2021/10/29 12:26:05;;;;;;;;;;;14.20;98.90;;;;;;5073250;28;20293;-76
2021/10/29 12:28:31;;;;;;;;;;;14.30;99.90;;;;;;5089052;28;19913;-76
2021/10/29 12:31:01;;;;;;;;;;;14.50;98.90;;;;;;5055912;28;19916;-75
2021/10/29 12:53:01;;;;;;;;;;;14.80;97.70;;;;;;5074144;28;19914;-75
2021/10/29 13:03:45;;;;;;;;;;;14.10;98.00;;;;;;5094315;28;19916;-76
2021/10/29 13:06:15;;;;;;;;;;;14.00;98.40;;;;;;5093873;28;19912;-75
2021/10/29 13:08:41;;;;;;;;;;;13.90;99.10;;;;;;5093835;28;19959;-75
2021/10/29 13:11:11;;;;;;;;;;;13.70;99.60;;;;;;5093085;28;19916;-75
2021/10/29 13:13:40;;;;;;;;;;;14.20;97.70;;;;;;5093796;28;19915;-75
2021/10/29 13:16:09;;;;;;;;;;;14.30;97.00;;;;;;5093669;28;19908;-76
2021/10/29 13:53:44;;;;;;;;;;;13.60;99.80;;;;;;5092994;28;19920;-75
2021/10/29 13:56:26;;;;;;;;;;;14.20;98.50;;;;;;5073140;28;19915;-75
2021/10/29 13:59:14;;;;;;;;;;;14.00;99.40;;;;;;5074319;28;19915;-75
2021/10/29 14:29:08;;;;;;;;;;;14.00;99.00;;;;;;5090957;28;19919;-75
2021/10/29 14:31:48;;;;;;;;;;;13.70;99.50;;;;;;5091392;28;19958;-75
2021/10/29 14:34:58;;;;;;;;;;;13.60;99.60;;;;;;5091965;28;19950;-74
2021/10/29 14:37:14;;;;;;;;;;;13.80;99.30;;;;;;5077103;28;19912;-75
2021/10/29 15:06:21;;;;;;;;;;;13.10;99.90;;;;;;5089491;28;19912;-75
2021/10/29 15:30:37;;;;;;;;;;;12.50;99.90;;;;;;5087043;28;19912;-75
2021/10/29 15:51:20;;;;;;;;;;;10.70;99.90;;;;;;5087570;28;20064;-75
2021/10/29 15:53:46;;;;;;;;;;;10.60;99.90;;;;;;5090076;28;20386;-75
2021/10/29 15:56:56;;;;;;;;;;;10.40;99.90;;;;;;5088135;28;19912;-75
2021/10/29 15:59:11;;;;;;;;;;;10.30;99.90;;;;;;5080864;28;19912;-75
2021/10/29 16:02:10;;;;;;;;;;;10.00;99.90;;;;;;5090972;28;19909;-75
2021/10/29 16:18:04;;;;;;;;;;;9.20;99.90;;;;;;5094450;28;19914;-75
2021/10/29 16:20:30;;;;;;;;;;;9.10;99.90;;;;;;5094038;28;19908;-75
2021/10/29 16:22:58;;;;;;;;;;;9.00;99.90;;;;;;5094428;28;19915;-74
2021/10/29 16:25:32;;;;;;;;;;;8.80;99.90;;;;;;5088055;28;19915;-75
2021/10/29 16:28:02;;;;;;;;;;;8.70;99.90;;;;;;5089739;28;19912;-75
2021/10/29 16:30:30;;;;;;;;;;;8.70;99.90;;;;;;5093903;28;19908;-75
2021/10/29 16:35:24;;;;;;;;;;;8.50;99.90;;;;;;5094347;28;19909;-74
2021/10/29 16:37:50;;;;;;;;;;;8.40;99.90;;;;;;5094099;28;20041;-75
2021/10/29 16:40:15;;;;;;;;;;;8.10;99.90;;;;;;5078030;28;19915;-74
2021/10/29 16:42:41;;;;;;;;;;;8.00;99.90;;;;;;5100402;28;19912;-74
2021/10/29 16:45:08;;;;;;;;;;;8.20;99.90;;;;;;5098832;28;19914;-74
2021/10/29 16:47:33;;;;;;;;;;;8.20;99.90;;;;;;5080496;28;20282;-74
2021/10/29 16:49:59;;;;;;;;;;;8.00;99.90;;;;;;5094946;28;19998;-74
2021/10/29 16:52:27;;;;;;;;;;;7.90;99.90;;;;;;5093862;28;20011;-75
2021/10/29 16:54:53;;;;;;;;;;;7.70;99.90;;;;;;5093948;28;19908;-75
2021/10/29 16:57:19;;;;;;;;;;;7.40;99.90;;;;;;5091186;28;19908;-74
2021/10/29 16:59:45;;;;;;;;;;;7.30;99.90;;;;;;5089300;28;19910;-75
2021/10/29 17:02:12;;;;;;;;;;;7.30;99.90;;;;;;5087179;28;20400;-75
2021/10/29 17:04:37;;;;;;;;;;;7.40;99.90;;;;;;5093664;28;19951;-74
2021/10/29 17:07:03;;;;;;;;;;;7.40;99.90;;;;;;5093577;28;19955;-75
2021/10/29 17:09:28;;;;;;;;;;;7.50;99.90;;;;;;5093211;28;20428;-75
2021/10/29 17:11:55;;;;;;;;;;;7.40;99.90;;;;;;5093146;28;20323;-74
2021/10/29 17:14:20;;;;;;;;;;;7.40;99.90;;;;;;5092183;28;19908;-75
2021/10/29 17:16:46;;;;;;;;;;;7.40;99.90;;;;;;5075220;28;19908;-75
2021/10/29 17:19:12;;;;;;;;;;;7.40;99.90;;;;;;5093308;28;19908;-75
2021/10/29 17:21:38;;;;;;;;;;;7.10;99.90;;;;;;5092995;28;19909;-75
2021/10/29 17:24:03;;;;;;;;;;;7.00;99.90;;;;;;5093317;28;19908;-74
2021/10/29 17:26:30;;;;;;;;;;;6.90;99.90;;;;;;5090213;28;19912;-74
2021/10/29 17:28:56;;;;;;;;;;;6.90;99.90;;;;;;5091827;28;19908;-74
2021/10/29 17:31:22;;;;;;;;;;;6.90;99.90;;;;;;5092624;28;20388;-74
2021/10/29 17:33:47;;;;;;;;;;;6.80;99.90;;;;;;5093197;28;19940;-74
2021/10/29 17:36:13;;;;;;;;;;;6.80;99.90;;;;;;5093032;28;19916;-74
2021/10/29 17:38:39;;;;;;;;;;;6.80;99.90;;;;;;5092878;28;19915;-75
2021/10/29 17:41:04;;;;;;;;;;;6.70;99.90;;;;;;5074279;28;20389;-75
2021/10/29 17:43:30;;;;;;;;;;;6.60;99.90;;;;;;5092615;28;19951;-75
2021/10/29 17:45:56;;;;;;;;;;;6.60;99.90;;;;;;5093202;28;19914;-74
2021/10/29 17:48:22;;;;;;;;;;;6.70;99.90;;;;;;5092693;28;20423;-75
2021/10/29 17:50:48;;;;;;;;;;;6.60;99.90;;;;;;5092308;28;19908;-74
2021/10/29 17:53:14;;;;;;;;;;;6.60;99.90;;;;;;5092661;28;19908;-74
2021/10/29 17:55:40;;;;;;;;;;;6.50;99.90;;;;;;5092499;28;19962;-74
2021/10/29 17:58:06;;;;;;;;;;;6.30;99.90;;;;;;5087186;28;19909;-74
2021/10/29 18:00:31;;;;;;;;;;;6.20;99.90;;;;;;5088679;28;19908;-75
2021/10/29 18:02:57;;;;;;;;;;;5.90;99.90;;;;;;5092437;28;19915;-75
2021/10/29 18:05:22;;;;;;;;;;;5.80;99.90;;;;;;5074138;28;19908;-74
2021/10/29 18:07:54;;;;;;;;;;;5.70;99.90;;;;;;5092275;28;19934;-74
2021/10/29 18:10:20;;;;;;;;;;;5.60;99.90;;;;;;5091763;28;19923;-75
2021/10/29 18:12:45;;;;;;;;;;;5.60;99.90;;;;;;5091931;28;19991;-75
2021/10/29 18:15:11;;;;;;;;;;;5.40;99.90;;;;;;5092166;28;19969;-74
2021/10/29 18:17:37;;;;;;;;;;;5.20;99.90;;;;;;5092141;28;19950;-74
2021/10/29 18:20:03;;;;;;;;;;;5.20;99.90;;;;;;5091701;28;19908;-75
2021/10/29 18:22:29;;;;;;;;;;;5.10;99.90;;;;;;5092151;28;19958;-74
2021/10/29 18:24:54;;;;;;;;;;;5.30;99.90;;;;;;5073722;28;19939;-75
2021/10/29 18:27:20;;;;;;;;;;;5.40;99.90;;;;;;5089794;28;19912;-75
2021/10/29 18:29:46;;;;;;;;;;;5.30;99.90;;;;;;5085876;28;20289;-75
2021/10/29 18:32:12;;;;;;;;;;;5.40;99.90;;;;;;5092148;28;19908;-75
2021/10/29 18:34:38;;;;;;;;;;;5.50;99.90;;;;;;5091788;28;20336;-74
2021/10/29 18:37:04;;;;;;;;;;;5.40;99.90;;;;;;5091878;28;19908;-74
2021/10/29 18:39:32;;;;;;;;;;;5.40;99.90;;;;;;5091518;28;19908;-75
2021/10/29 18:41:58;;;;;;;;;;;5.30;99.90;;;;;;5091369;28;19912;-75
2021/10/29 18:44:23;;;;;;;;;;;5.20;99.90;;;;;;5091739;28;19969;-74
2021/10/29 18:46:49;;;;;;;;;;;5.20;99.90;;;;;;5091788;28;19930;-75
2021/10/29 18:49:15;;;;;;;;;;;5.20;99.90;;;;;;5073472;28;20366;-75
2021/10/29 18:51:41;;;;;;;;;;;5.10;99.90;;;;;;5091231;28;19912;-75
2021/10/29 18:54:08;;;;;;;;;;;5.10;99.90;;;;;;5091517;28;19908;-75
2021/10/29 18:56:36;;;;;;;;;;;5.10;99.90;;;;;;5088826;28;19955;-74
2021/10/29 18:59:03;;;;;;;;;;;5.10;99.90;;;;;;5089966;28;19912;-74
2021/10/29 19:01:29;;;;;;;;;;;5.30;99.90;;;;;;5072817;28;19957;-74
2021/10/29 19:03:54;;;;;;;;;;;5.40;99.90;;;;;;5091385;28;19908;-74
2021/10/29 19:06:19;;;;;;;;;;;5.40;99.90;;;;;;5091633;28;19916;-75
2021/10/29 19:08:45;;;;;;;;;;;5.20;99.90;;;;;;5091418;28;19908;-75
2021/10/29 19:11:11;;;;;;;;;;;5.20;99.90;;;;;;5073068;28;19920;-74
2021/10/29 19:13:37;;;;;;;;;;;5.10;99.90;;;;;;5091663;28;19908;-75
2021/10/29 19:16:02;;;;;;;;;;;5.10;99.90;;;;;;5073665;28;19915;-74
2021/10/29 19:18:28;;;;;;;;;;;5.10;99.90;;;;;;5091489;28;19908;-75